Time;durP1;ratioP1;P1;durP2;ratioP2;P2;SDS_P1;SDS_P2;PMS_P1;PMS_P2;Temp;Humidity;BMP_temperature;BMP_pressure;BME280_temperature;BME280_humidity;BME280_pressure;Samples;Min_cycle;Max_cycle;Signal;HPM_P1;HPM_P2
2021/04/01 00:02:16;;;;;;;21.83;14.10;;;;;;;14.33;44.76;100608.13;8653119;33;20119;-72
2021/04/01 00:07:20;;;;;;;22.73;13.15;;;;;;;14.15;45.52;100603.47;8628082;33;20204;-72
2021/04/01 00:12:22;;;;;;;24.02;14.73;;;;;;;14.08;45.69;100594.22;8652479;33;20412;-72
2021/04/01 00:17:26;;;;;;;25.15;13.82;;;;;;;14.10;45.79;100600.31;8608060;33;20164;-72
2021/04/01 00:22:29;;;;;;;19.92;13.45;;;;;;;13.99;46.27;100595.06;8603544;33;20958;-72
2021/04/01 00:27:31;;;;;;;23.15;14.88;;;;;;;13.91;46.68;100592.22;8642334;33;22778;-72
2021/04/01 00:32:33;;;;;;;23.27;14.57;;;;;;;13.44;47.34;100592.00;8657305;33;20874;-72
2021/04/01 00:37:37;;;;;;;26.00;16.08;;;;;;;13.50;47.98;100583.34;8656603;33;20205;-72
2021/04/01 00:42:40;;;;;;;25.60;14.80;;;;;;;13.60;47.31;100583.34;8656189;33;20151;-72
2021/04/01 00:47:44;;;;;;;20.85;13.63;;;;;;;13.46;47.52;100585.44;8655252;33;21826;-72
2021/04/01 00:52:47;;;;;;;21.85;14.00;;;;;;;13.44;47.84;100584.75;8659873;33;20209;-72
2021/04/01 00:57:53;;;;;;;21.85;13.38;;;;;;;13.20;48.41;100576.97;8661626;33;20527;-73
2021/04/01 01:02:55;;;;;;;24.13;14.32;;;;;;;13.10;48.87;100578.78;8664037;33;20425;-72
2021/04/01 01:07:59;;;;;;;25.48;14.48;;;;;;;12.99;49.42;100582.41;8668360;33;20190;-73
2021/04/01 01:13:03;;;;;;;21.35;14.45;;;;;;;12.83;49.98;100579.34;8665342;33;20452;-72
2021/04/01 01:18:06;;;;;;;23.45;14.20;;;;;;;12.71;50.64;100586.69;8636644;33;21191;-72
2021/04/01 01:23:09;;;;;;;26.85;15.82;;;;;;;11.85;52.33;100585.03;8661714;33;21278;-72
2021/04/01 01:28:12;;;;;;;22.07;14.83;;;;;;;12.06;52.24;100579.69;8670452;33;21117;-72
2021/04/01 01:33:17;;;;;;;25.92;13.68;;;;;;;12.35;51.12;100578.09;8679545;33;21128;-73
2021/04/01 01:38:20;;;;;;;24.50;14.38;;;;;;;12.20;51.31;100578.50;8676495;33;20570;-72
2021/04/01 01:43:25;;;;;;;20.80;13.63;;;;;;;12.20;51.50;100583.91;8662539;33;20541;-72
2021/04/01 01:48:27;;;;;;;25.83;14.73;;;;;;;12.34;51.29;100591.69;8674968;33;20419;-73
2021/04/01 01:53:30;;;;;;;22.38;14.82;;;;;;;12.50;50.67;100585.84;8681619;33;20923;-72
2021/04/01 01:58:34;;;;;;;22.15;14.48;;;;;;;12.47;50.98;100581.56;8687115;33;21476;-73
2021/04/01 02:03:36;;;;;;;20.85;14.68;;;;;;;12.73;50.48;100575.78;8687133;33;20445;-72
2021/04/01 02:08:38;;;;;;;26.65;15.38;;;;;;;12.83;50.54;100571.28;8686313;33;20463;-73
2021/04/01 02:13:41;;;;;;;22.98;15.30;;;;;;;12.79;50.58;100573.41;8686207;33;20277;-73
2021/04/01 02:18:43;;;;;;;24.05;14.85;;;;;;;12.93;50.51;100576.72;8683126;33;20816;-73
2021/04/01 02:23:46;;;;;;;24.20;14.18;;;;;;;12.97;50.38;100572.75;8683890;33;20417;-72
2021/04/01 02:28:49;;;;;;;23.77;14.07;;;;;;;12.89;50.56;100573.47;8683358;33;20934;-72
2021/04/01 02:33:52;;;;;;;21.40;13.10;;;;;;;12.89;50.86;100562.66;8682759;33;20217;-72
2021/04/01 02:38:55;;;;;;;20.90;14.18;;;;;;;12.90;50.83;100556.28;8682187;33;20174;-72
2021/04/01 02:43:58;;;;;;;25.10;15.68;;;;;;;12.76;51.25;100553.94;8683571;33;20544;-72
2021/04/01 02:49:00;;;;;;;25.45;14.57;;;;;;;12.91;50.53;100539.09;8689411;33;20455;-72
2021/04/01 02:54:02;;;;;;;28.77;16.77;;;;;;;13.06;48.73;100523.41;8688415;33;20407;-70
2021/04/01 02:59:05;;;;;;;22.13;14.60;;;;;;;12.59;50.57;100567.06;8685048;33;20537;-71
2021/04/01 03:04:10;;;;;;;27.17;16.55;;;;;;;11.84;53.13;100551.88;8680078;33;20408;-72
2021/04/01 03:09:12;;;;;;;29.38;17.23;;;;;;;12.39;51.12;100536.44;8678768;33;20407;-72
2021/04/01 03:14:15;;;;;;;28.77;16.40;;;;;;;12.88;49.89;100546.63;8674164;33;20543;-72
2021/04/01 03:19:17;;;;;;;29.55;17.10;;;;;;;13.00;49.61;100562.56;8656930;33;20453;-72
2021/04/01 03:24:19;;;;;;;24.13;14.73;;;;;;;12.46;54.65;100565.56;8680919;33;20255;-72
2021/04/01 03:29:22;;;;;;;19.70;13.50;;;;;;;12.12;55.32;100566.56;8679607;33;20146;-72
2021/04/01 03:34:24;;;;;;;28.20;16.33;;;;;;;12.19;54.78;100557.97;8659484;33;20182;-72
2021/04/01 03:39:26;;;;;;;29.92;16.40;;;;;;;12.21;54.53;100570.31;8657483;33;20193;-72
2021/04/01 03:44:30;;;;;;;26.27;15.30;;;;;;;12.30;54.27;100574.94;8680452;33;20411;-73
2021/04/01 03:49:32;;;;;;;21.95;13.98;;;;;;;11.87;55.48;100577.66;8679999;33;21604;-72
2021/04/01 03:54:35;;;;;;;26.40;15.20;;;;;;;11.98;55.73;100574.09;8680674;33;20147;-70
2021/04/01 03:59:44;;;;;;;26.20;15.70;;;;;;;12.16;54.05;100575.22;8659772;33;20411;-72
2021/04/01 04:05:04;;;;;;;25.63;16.15;;;;;;;12.10;53.51;100579.31;8672043;33;20495;-71
2021/04/01 04:10:24;;;;;;;25.35;15.55;;;;;;;12.35;53.72;100561.94;8665816;33;20178;-71
2021/04/01 04:15:27;;;;;;;33.03;17.88;;;;;;;12.38;53.15;100566.22;8651790;33;20190;-72
2021/04/01 04:20:30;;;;;;;31.48;18.83;;;;;;;12.11;54.65;100582.84;8619544;33;20597;-72
2021/04/01 04:25:34;;;;;;;27.88;16.70;;;;;;;12.06;55.36;100558.13;8616363;33;20955;-72
2021/04/01 04:30:37;;;;;;;32.22;17.13;;;;;;;12.21;54.11;100578.41;8603949;33;20441;-72
2021/04/01 04:35:39;;;;;;;33.80;17.70;;;;;;;12.41;52.44;100581.25;8604856;33;20147;-72
2021/04/01 04:40:42;;;;;;;32.20;17.33;;;;;;;12.69;52.38;100582.41;8602718;33;20574;-72
2021/04/01 04:45:45;;;;;;;30.20;16.88;;;;;;;12.74;52.31;100583.72;8603203;33;21174;-72
2021/04/01 04:50:47;;;;;;;34.40;18.33;;;;;;;12.76;52.02;100572.81;8601703;33;20444;-72
2021/04/01 04:56:00;;;;;;;37.22;19.85;;;;;;;13.00;49.16;100564.38;8598259;33;20148;-72
2021/04/01 05:01:09;;;;;;;35.40;18.60;;;;;;;13.00;49.51;100549.09;8602492;33;20840;-71
2021/04/01 05:06:15;;;;;;;36.85;20.08;;;;;;;13.01;49.84;100561.56;8604385;33;20174;-72
2021/04/01 05:11:17;;;;;;;35.25;18.48;;;;;;;13.09;50.53;100560.91;8603265;33;20869;-72
2021/04/01 05:16:21;;;;;;;36.72;18.55;;;;;;;13.08;50.96;100552.94;8648541;33;20138;-72
2021/04/01 05:21:30;;;;;;;30.83;17.98;;;;;;;12.94;50.26;100570.34;8647599;33;21317;-72
2021/04/01 05:26:54;;;;;;;31.75;17.92;;;;;;;12.68;50.81;100575.31;8674314;33;20928;-72
2021/04/01 05:31:57;;;;;;;34.53;18.48;;;;;;;12.32;54.45;100583.75;8673262;33;20139;-72
2021/04/01 05:37:01;;;;;;;28.98;17.42;;;;;;;12.35;54.15;100593.41;8672246;33;20213;-72
2021/04/01 05:42:06;;;;;;;33.40;18.67;;;;;;;11.93;54.83;100598.72;8659316;33;20410;-72
2021/04/01 05:47:14;;;;;;;32.10;18.23;;;;;;;12.19;54.48;100591.13;8656656;33;20403;-72
2021/04/01 05:58:17;;;;;;;33.88;17.80;;;;;;;12.64;53.30;100619.69;8654353;33;20134;-72
2021/04/01 06:03:33;;;;;;;36.50;18.50;;;;;;;12.66;52.01;100621.25;8653125;33;20431;-72
2021/04/01 06:08:41;;;;;;;39.40;19.88;;;;;;;13.04;50.73;100633.25;8654460;33;20441;-72
2021/04/01 06:14:06;;;;;;;12.55;7.40;;;;;;;13.26;50.35;100630.38;8649466;33;20409;-72
2021/04/01 06:19:11;;;;;;;22.58;12.30;;;;;;;13.49;49.18;100633.78;8593811;33;20424;-73
2021/04/01 06:24:26;;;;;;;27.63;15.57;;;;;;;13.78;49.82;100649.19;8593980;33;20135;-72
2021/04/01 06:29:31;;;;;;;25.83;15.20;;;;;;;13.98;50.40;100651.91;8608970;33;20553;-72
2021/04/01 06:34:41;;;;;;;48.67;22.30;;;;;;;14.11;48.26;100633.59;8648671;33;20178;-72
2021/04/01 06:39:45;;;;;;;49.95;23.63;;;;;;;14.37;47.62;100640.13;8657905;33;20498;-72
2021/04/01 06:44:54;;;;;;;52.08;24.88;;;;;;;14.55;47.15;100639.44;8662080;33;21117;-72
2021/04/01 06:50:06;;;;;;;55.20;26.15;;;;;;;14.79;45.99;100620.06;8657476;33;20498;-72
2021/04/01 06:55:26;;;;;;;56.63;25.48;;;;;;;14.80;46.25;100624.44;8628876;33;22511;-72
2021/04/01 07:00:38;;;;;;;58.33;24.63;;;;;;;14.80;46.82;100627.16;8655711;33;20502;-72
2021/04/01 07:05:53;;;;;;;51.03;24.67;;;;;;;15.14;46.96;100657.25;8630072;33;20451;-72
2021/04/01 07:11:00;;;;;;;47.20;22.17;;;;;;;15.36;46.77;100656.06;8656344;33;20220;-72
2021/04/01 07:16:19;;;;;;;52.63;24.55;;;;;;;15.59;47.84;100664.63;8646165;33;20524;-72
2021/04/01 07:22:21;;;;;;;46.30;24.15;;;;;;;15.69;46.40;100656.47;8630991;33;20344;-72
2021/04/01 07:32:37;;;;;;;56.35;26.30;;;;;;;16.12;44.32;100650.31;8605216;33;20471;-72
2021/04/01 07:48:40;;;;;;;60.92;27.92;;;;;;;17.13;41.78;100652.72;8585692;33;20190;-72
2021/04/01 07:53:45;;;;;;;56.25;26.27;;;;;;;17.40;40.89;100648.94;8596531;33;21037;-72
2021/04/01 08:04:10;;;;;;;71.20;30.75;;;;;;;17.62;40.58;100666.53;8645012;33;20241;-72
2021/04/01 08:09:22;;;;;;;59.88;28.20;;;;;;;18.16;40.17;100682.53;8621907;33;21674;-71
2021/04/01 08:14:32;;;;;;;70.47;30.15;;;;;;;18.41;37.62;100680.69;8611794;33;20653;-71
2021/04/01 08:19:38;;;;;;;64.05;29.88;;;;;;;18.19;38.54;100678.63;8595670;33;20182;-71
2021/04/01 08:25:04;;;;;;;65.53;28.65;;;;;;;17.10;39.35;100665.72;8591515;33;20189;-71
2021/04/01 08:36:27;;;;;;;63.17;30.20;;;;;;;18.41;37.51;100664.38;8638958;33;20966;-72
2021/04/01 08:42:43;;;;;;;65.70;30.48;;;;;;;17.53;39.28;100664.81;8594244;33;20465;-71
2021/04/01 08:48:32;;;;;;;62.30;30.27;;;;;;;18.62;38.51;100663.84;8577557;33;20449;-72
2021/04/01 08:53:47;;;;;;;66.30;30.48;;;;;;;19.27;37.69;100668.41;8584126;33;20289;-72
2021/04/01 08:59:03;;;;;;;67.32;31.83;;;;;;;20.11;36.87;100680.50;8582873;33;20186;-72
2021/04/01 09:04:06;;;;;;;60.20;28.27;;;;;;;19.32;35.96;100671.44;8583050;33;20759;-72
2021/04/01 09:09:14;;;;;;;69.82;31.13;;;;;;;19.31;34.92;100667.03;8586247;33;20534;-72
2021/04/01 09:14:31;;;;;;;63.42;29.90;;;;;;;19.88;35.39;100677.75;8602224;33;20157;-72
2021/04/01 09:19:35;;;;;;;64.85;28.98;;;;;;;20.70;35.08;100681.78;8595459;33;20439;-72
2021/04/01 09:24:38;;;;;;;62.65;29.20;;;;;;;20.85;33.96;100677.25;8573390;33;20874;-71
2021/04/01 09:29:43;;;;;;;66.38;28.88;;;;;;;20.75;33.93;100665.72;8595149;33;20425;-72
2021/04/01 09:34:49;;;;;;;66.78;29.73;;;;;;;21.07;33.26;100666.47;8595353;33;20226;-72
2021/04/01 09:39:55;;;;;;;66.80;29.83;;;;;;;21.42;33.10;100659.44;8596022;33;21416;-72
2021/04/01 09:45:00;;;;;;;66.32;30.33;;;;;;;22.02;32.83;100661.06;8598863;33;20434;-72
2021/04/01 09:50:07;;;;;;;65.30;32.00;;;;;;;22.59;31.56;100664.81;8601676;33;20197;-72
2021/04/01 09:55:14;;;;;;;70.63;32.88;;;;;;;22.28;32.02;100670.59;8609492;33;20151;-72
2021/04/01 10:00:30;;;;;;;67.40;32.67;;;;;;;21.65;32.78;100670.25;8618868;33;20198;-72
2021/04/01 10:05:53;;;;;;;70.38;33.05;;;;;;;21.79;32.28;100688.53;8655368;33;20178;-71
2021/04/01 10:10:57;;;;;;;71.38;33.97;;;;;;;21.91;32.16;100696.25;8674838;33;20407;-71
2021/04/01 10:16:01;;;;;;;76.78;35.47;;;;;;;21.72;31.92;100694.91;8679379;33;20209;-71
2021/04/01 10:21:10;;;;;;;79.10;35.50;;;;;;;21.97;30.95;100696.34;8680614;33;20182;-72
2021/04/01 10:26:14;;;;;;;72.03;32.38;;;;;;;22.47;30.95;100711.03;8659220;33;20403;-73
2021/04/01 10:31:19;;;;;;;77.80;34.50;;;;;;;22.71;30.36;100718.00;8643878;33;20175;-73
2021/04/01 10:36:29;;;;;;;79.38;37.10;;;;;;;22.34;30.46;100721.81;8662207;33;20154;-73
2021/04/01 10:41:44;;;;;;;75.78;37.17;;;;;;;22.60;31.02;100724.00;8679697;33;20408;-72
2021/04/01 10:46:53;;;;;;;77.50;37.28;;;;;;;22.86;30.60;100733.50;8677655;33;20428;-72
2021/04/01 10:51:58;;;;;;;82.93;38.45;;;;;;;22.31;32.24;100746.81;8679959;33;20410;-72
2021/04/01 10:57:02;;;;;;;90.40;41.25;;;;;;;22.78;31.62;100748.19;8645510;33;20432;-72
2021/04/01 11:02:16;;;;;;;88.97;41.97;;;;;;;22.21;31.95;100752.59;8678945;33;20497;-72
2021/04/01 11:07:20;;;;;;;86.43;37.50;;;;;;;22.01;32.48;100744.13;8681750;33;20399;-72
2021/04/01 11:12:23;;;;;;;73.88;35.08;;;;;;;22.65;32.61;100748.88;8679517;33;20635;-72
2021/04/01 11:17:26;;;;;;;71.75;33.97;;;;;;;23.06;31.42;100759.19;8654937;33;20480;-72
2021/04/01 11:22:28;;;;;;;73.68;36.42;;;;;;;23.35;31.34;100754.59;8679686;33;20918;-72
2021/04/01 11:27:30;;;;;;;70.57;31.38;;;;;;;22.20;32.96;100758.25;8678615;33;20971;-72
2021/04/01 11:32:33;;;;;;;60.78;30.40;;;;;;;23.30;31.15;100754.34;8683267;33;21213;-72
2021/04/01 11:37:37;;;;;;;58.50;28.25;;;;;;;23.34;31.92;100761.97;8685312;33;20393;-72
2021/04/01 11:42:39;;;;;;;49.38;22.58;;;;;;;23.64;31.49;100770.84;8685168;33;20458;-72
2021/04/01 11:47:42;;;;;;;42.10;21.45;;;;;;;23.53;32.16;100776.88;8686514;33;20560;-72
2021/04/01 11:52:45;;;;;;;29.95;15.70;;;;;;;23.61;31.14;100770.38;8690683;33;20233;-72
2021/04/01 11:57:48;;;;;;;23.90;13.65;;;;;;;23.78;31.62;100776.41;8689825;33;20178;-72
2021/04/01 12:02:56;;;;;;;25.27;14.50;;;;;;;23.83;31.69;100774.78;8690223;33;20435;-72
2021/04/01 12:07:58;;;;;;;22.20;11.02;;;;;;;23.71;32.16;100775.50;8690365;33;20407;-73
2021/04/01 12:13:01;;;;;;;14.85;8.90;;;;;;;22.84;33.04;100787.63;8689766;33;20219;-72
2021/04/01 12:18:07;;;;;;;14.18;7.30;;;;;;;23.88;31.96;100785.97;8685874;33;20978;-72
2021/04/01 12:23:11;;;;;;;11.18;5.32;;;;;;;24.16;30.57;100793.28;8691535;33;20508;-72
2021/04/01 12:28:20;;;;;;;7.30;4.10;;;;;;;23.26;32.41;100788.66;8672302;33;20409;-72
2021/04/01 12:33:25;;;;;;;7.97;4.45;;;;;;;23.39;31.58;100800.63;8653616;33;20561;-73
2021/04/01 12:38:31;;;;;;;7.38;4.03;;;;;;;24.54;30.88;100807.38;8561320;33;20148;-72
2021/04/01 12:43:36;;;;;;;8.98;4.20;;;;;;;24.62;31.02;100800.88;8569899;33;20425;-72
2021/04/01 12:48:41;;;;;;;8.95;3.85;;;;;;;24.45;30.75;100805.91;8567111;33;20187;-71
2021/04/01 12:53:43;;;;;;;7.97;4.95;;;;;;;24.63;30.65;100801.72;8566797;33;20917;-72
2021/04/01 12:58:47;;;;;;;9.18;4.85;;;;;;;23.90;31.09;100804.13;8569767;33;20194;-72
2021/04/01 13:03:52;;;;;;;9.18;5.10;;;;;;;23.98;31.67;100806.72;8618934;33;20223;-71
2021/04/01 13:08:58;;;;;;;8.07;4.80;;;;;;;24.23;31.07;100815.28;8618497;33;20426;-71
2021/04/01 13:14:01;;;;;;;6.50;4.70;;;;;;;25.15;29.96;100820.25;8619558;33;20218;-71
2021/04/01 13:19:06;;;;;;;8.40;4.00;;;;;;;26.13;28.51;100813.16;8622378;33;20643;-72
2021/04/01 13:24:14;;;;;;;6.68;3.60;;;;;;;25.47;29.24;100816.84;8605381;33;20446;-71
2021/04/01 13:29:20;;;;;;;6.28;3.83;;;;;;;25.96;28.18;100810.88;8525513;33;21085;-70
2021/04/01 13:34:27;;;;;;;5.10;3.88;;;;;;;25.71;28.28;100827.22;8538377;33;20667;-70
2021/04/01 13:39:32;;;;;;;5.82;3.88;;;;;;;23.79;30.39;100817.34;8619776;33;20460;-70
2021/04/01 13:44:38;;;;;;;5.25;4.00;;;;;;;21.88;32.62;100821.38;8615612;33;20589;-71
2021/04/01 13:49:42;;;;;;;4.95;3.97;;;;;;;22.39;31.90;100817.84;8615212;33;20198;-71
2021/04/01 13:54:54;;;;;;;6.15;3.88;;;;;;;20.69;33.53;100830.22;8615044;33;20465;-71
2021/04/01 14:00:19;;;;;;;5.25;3.70;;;;;;;19.92;34.28;100832.78;8613174;33;20179;-71
2021/04/01 14:10:46;;;;;;;6.82;3.78;;;;;;;19.13;36.47;100837.94;8661012;33;20189;-71
2021/04/01 14:15:50;;;;;;;12.52;4.47;;;;;;;21.22;33.55;100831.22;8639492;33;20159;-71
2021/04/01 14:20:54;;;;;;;4.72;3.80;;;;;;;22.45;30.56;100830.81;8673417;33;20256;-71
2021/04/01 14:25:59;;;;;;;6.50;3.78;;;;;;;22.91;29.79;100833.22;8586963;33;20511;-71
2021/04/01 14:31:05;;;;;;;6.55;4.18;;;;;;;23.04;28.64;100848.94;8734995;33;20226;-71
2021/04/01 14:36:12;;;;;;;11.20;4.15;;;;;;;23.11;27.68;100844.41;8910348;33;20256;-71
2021/04/01 14:41:18;;;;;;;7.43;3.70;;;;;;;22.21;28.19;100834.66;8755448;33;20138;-72
2021/04/01 14:46:20;;;;;;;5.47;3.10;;;;;;;21.98;28.92;100843.00;8873385;33;20222;-71
2021/04/01 14:51:24;;;;;;;4.28;3.47;;;;;;;22.59;29.26;100839.19;8884636;33;20646;-71
2021/04/01 14:56:28;;;;;;;9.25;3.17;;;;;;;23.05;28.81;100849.78;8794747;33;20225;-72
2021/04/01 15:01:31;;;;;;;6.63;3.10;;;;;;;22.91;26.51;100851.56;8914313;33;20229;-71
2021/04/01 15:06:35;;;;;;;5.50;3.42;;;;;;;22.73;28.44;100871.13;8915496;33;20605;-72
2021/04/01 15:11:39;;;;;;;7.75;2.95;;;;;;;22.48;27.60;100854.22;8894588;33;20425;-72
2021/04/01 15:16:42;;;;;;;4.70;2.63;;;;;;;21.79;28.08;100857.22;8890156;33;20229;-71
2021/04/01 15:21:45;;;;;;;9.40;3.03;;;;;;;21.79;28.27;100869.00;8914828;33;20624;-71
2021/04/01 15:26:47;;;;;;;4.43;2.33;;;;;;;21.38;27.33;100876.69;8915132;33;20237;-72
2021/04/01 15:31:49;;;;;;;4.38;2.65;;;;;;;21.02;27.64;100874.56;8915098;33;20884;-72
2021/04/01 15:36:53;;;;;;;7.63;2.95;;;;;;;20.33;29.61;100872.53;8914866;33;20242;-71
2021/04/01 15:41:55;;;;;;;5.88;3.10;;;;;;;20.43;29.88;100876.91;8914727;33;20250;-72
2021/04/01 15:46:57;;;;;;;11.77;3.20;;;;;;;19.86;30.04;100881.50;8914465;33;21653;-72
2021/04/01 15:52:01;;;;;;;5.38;3.55;;;;;;;19.37;32.20;100897.00;8915082;33;20221;-72
2021/04/01 15:57:05;;;;;;;5.00;2.90;;;;;;;18.88;33.62;100895.06;8914584;33;20802;-71
2021/04/01 16:02:07;;;;;;;6.47;3.22;;;;;;;18.55;34.05;100896.81;8910165;33;20290;-71
2021/04/01 16:07:10;;;;;;;4.72;3.13;;;;;;;18.27;34.13;100912.50;8837711;33;20410;-71
2021/04/01 16:12:13;;;;;;;6.50;3.15;;;;;;;17.85;34.77;100911.38;8873902;33;20243;-72
2021/04/01 16:17:15;;;;;;;7.65;3.03;;;;;;;17.60;35.70;100907.59;8866655;33;21442;-72
2021/04/01 16:22:19;;;;;;;5.25;2.47;;;;;;;17.08;37.00;100910.16;8852554;33;20716;-72
2021/04/01 16:27:22;;;;;;;6.50;2.90;;;;;;;16.59;37.47;100907.75;8858859;33;20289;-72
2021/04/01 16:32:24;;;;;;;3.53;3.13;;;;;;;16.36;37.81;100909.16;8858081;33;22181;-72
2021/04/01 16:37:35;;;;;;;6.53;2.67;;;;;;;15.97;38.62;100916.53;8913684;33;20220;-72
2021/04/01 16:42:40;;;;;;;5.93;2.70;;;;;;;15.58;39.54;100922.03;8913063;33;20384;-72
2021/04/01 16:47:43;;;;;;;3.70;2.50;;;;;;;15.28;40.08;100937.38;8845257;33;20230;-72
2021/04/01 16:52:58;;;;;;;7.32;3.40;;;;;;;15.06;40.52;100938.50;8885880;33;20710;-72
2021/04/01 16:58:01;;;;;;;4.35;3.13;;;;;;;14.60;41.20;100948.06;8874448;33;21833;-72
2021/04/01 17:03:04;;;;;;;8.07;3.88;;;;;;;14.16;42.02;100955.50;8872145;33;20227;-72
2021/04/01 17:08:07;;;;;;;5.25;3.38;;;;;;;14.07;42.62;100953.59;8853104;33;20230;-72
2021/04/01 17:13:10;;;;;;;6.53;3.25;;;;;;;13.19;44.41;100966.41;8851933;33;20344;-73
2021/04/01 17:18:20;;;;;;;4.82;3.20;;;;;;;12.98;44.96;100974.44;8851803;33;20951;-72
2021/04/01 17:23:25;;;;;;;6.78;3.58;;;;;;;12.56;45.50;100981.44;8854142;33;20217;-72
2021/04/01 17:28:27;;;;;;;6.03;3.90;;;;;;;12.20;46.09;100985.19;8879881;33;20248;-72
2021/04/01 17:33:30;;;;;;;10.13;4.70;;;;;;;11.87;46.76;100987.69;8863104;33;20225;-72
2021/04/01 17:38:34;;;;;;;4.32;3.67;;;;;;;11.53;47.74;100991.25;8851580;33;20230;-72
2021/04/01 17:43:36;;;;;;;6.80;3.78;;;;;;;11.33;47.92;101000.81;8851399;33;20238;-73
2021/04/01 17:48:38;;;;;;;9.05;4.13;;;;;;;11.07;49.13;101003.56;8851393;33;20227;-72
2021/04/01 17:53:41;;;;;;;6.30;3.20;;;;;;;10.68;50.02;101000.13;8851801;33;20998;-72
2021/04/01 17:58:47;;;;;;;5.63;3.60;;;;;;;10.58;50.32;101009.78;8862778;33;21511;-72
2021/04/01 18:04:13;;;;;;;4.75;2.85;;;;;;;10.45;50.91;101019.69;8850997;33;20222;-72
2021/04/01 18:25:39;;;;;;;7.97;4.25;;;;;;;9.86;52.99;101041.66;8911139;33;20221;-73
2021/04/01 18:30:44;;;;;;;5.78;3.55;;;;;;;9.78;53.13;101043.97;8911148;33;21242;-72
2021/04/01 18:35:51;;;;;;;4.60;3.53;;;;;;;9.73;53.50;101050.47;8914834;33;20225;-72
2021/04/01 18:40:57;;;;;;;7.70;4.07;;;;;;;9.64;53.62;101052.94;8916461;33;20232;-72
2021/04/01 18:46:03;;;;;;;5.95;3.25;;;;;;;9.35;54.51;101055.72;8916733;33;20225;-72
2021/04/01 18:51:08;;;;;;;4.30;2.88;;;;;;;9.19;54.92;101058.53;8891117;33;20233;-72
2021/04/01 18:56:16;;;;;;;5.97;3.50;;;;;;;9.16;55.07;101057.84;8891745;33;20244;-72
2021/04/01 19:01:34;;;;;;;5.63;3.95;;;;;;;9.09;55.40;101069.94;8916343;33;20236;-72
2021/04/01 19:06:44;;;;;;;4.30;3.03;;;;;;;9.12;55.19;101073.28;8916765;33;20225;-72
2021/04/01 19:22:48;;;;;;;6.10;3.45;;;;;;;9.02;55.63;101078.38;8873574;33;20221;-73
2021/04/01 19:27:52;;;;;;;7.47;3.33;;;;;;;8.82;56.20;101082.31;8905131;33;20227;-72
2021/04/01 19:32:54;;;;;;;4.80;3.83;;;;;;;8.82;55.88;101090.34;8856512;33;20226;-72
2021/04/01 19:37:57;;;;;;;6.00;4.05;;;;;;;8.69;56.37;101093.88;8856236;33;20900;-71
2021/04/01 19:43:00;;;;;;;6.97;4.32;;;;;;;8.61;56.69;101099.69;8855715;33;20237;-71
2021/04/01 19:48:04;;;;;;;4.75;4.15;;;;;;;8.61;56.78;101099.69;8854911;33;20233;-71
2021/04/01 19:53:06;;;;;;;8.75;5.82;;;;;;;8.82;56.76;101102.88;8853759;33;20226;-71
2021/04/01 19:58:11;;;;;;;8.80;4.95;;;;;;;9.04;56.36;101107.75;8855799;33;20229;-71
2021/04/01 20:03:13;;;;;;;11.80;5.15;;;;;;;9.03;55.96;101104.22;8855348;33;21615;-71
2021/04/01 20:08:15;;;;;;;8.48;5.05;;;;;;;9.00;56.40;101109.78;8854410;33;20233;-71
2021/04/01 20:13:21;;;;;;;10.30;4.78;;;;;;;9.13;56.44;101107.16;8854699;33;20625;-71
2021/04/01 20:18:23;;;;;;;8.60;5.07;;;;;;;9.28;56.07;101113.38;8855183;33;20227;-71
2021/04/01 20:23:26;;;;;;;9.20;5.50;;;;;;;9.41;55.92;101118.81;8854914;33;20234;-71
2021/04/01 20:28:29;;;;;;;8.48;4.90;;;;;;;9.37;55.99;101119.97;8853465;33;20218;-71
2021/04/01 20:33:32;;;;;;;10.98;5.43;;;;;;;9.36;55.88;101121.78;8854133;33;20730;-71
2021/04/01 20:38:35;;;;;;;8.15;5.10;;;;;;;9.32;55.80;101128.28;8855783;33;20218;-72
2021/04/01 20:43:38;;;;;;;8.55;4.80;;;;;;;9.26;55.32;101116.16;8855695;33;20215;-72
2021/04/01 20:48:41;;;;;;;8.15;5.00;;;;;;;9.18;55.37;101121.13;8855179;33;20234;-71
2021/04/01 20:53:44;;;;;;;5.20;4.20;;;;;;;9.12;55.46;101126.88;8855193;33;20222;-71
2021/04/01 20:58:47;;;;;;;7.57;4.90;;;;;;;9.00;55.86;101136.56;8855268;33;20962;-71
2021/04/01 21:03:49;;;;;;;9.00;4.72;;;;;;;8.97;55.89;101125.19;8853687;33;20233;-71
2021/04/01 21:08:52;;;;;;;7.97;4.68;;;;;;;8.96;55.64;101126.13;8854800;33;20227;-71
2021/04/01 21:13:55;;;;;;;7.53;4.60;;;;;;;8.99;55.94;101131.28;8853904;33;20226;-71
2021/04/01 21:18:57;;;;;;;10.15;4.82;;;;;;;9.03;56.02;101133.69;8854620;33;20230;-71
2021/04/01 21:23:59;;;;;;;8.55;4.13;;;;;;;9.12;55.93;101131.41;8876997;33;20798;-71
2021/04/01 21:29:02;;;;;;;7.72;4.32;;;;;;;9.11;55.78;101135.91;8877150;33;20226;-71
2021/04/01 21:34:05;;;;;;;9.55;4.68;;;;;;;9.04;55.98;101140.78;8854106;33;20718;-71
2021/04/01 21:39:07;;;;;;;6.53;4.38;;;;;;;9.04;56.15;101139.91;8853973;33;20226;-71
2021/04/01 21:44:10;;;;;;;8.95;4.30;;;;;;;9.14;56.10;101134.84;8853641;33;20230;-72
2021/04/01 21:49:12;;;;;;;6.70;4.18;;;;;;;9.16;56.10;101143.63;8854285;33;20218;-71
2021/04/01 21:54:14;;;;;;;7.43;4.13;;;;;;;8.98;56.58;101142.97;8854356;33;20233;-71
2021/04/01 21:59:17;;;;;;;9.13;4.90;;;;;;;8.94;56.74;101154.84;8852357;33;20230;-71
2021/04/01 22:04:19;;;;;;;7.43;4.45;;;;;;;8.84;57.19;101151.88;8849880;33;20230;-72
2021/04/01 22:09:22;;;;;;;7.63;4.45;;;;;;;8.51;57.65;101155.66;8856269;33;20299;-71
2021/04/01 22:14:25;;;;;;;6.32;4.50;;;;;;;8.57;58.01;101160.63;8907949;33;20233;-71
2021/04/01 22:19:27;;;;;;;8.95;5.00;;;;;;;8.50;58.05;101166.44;8904006;33;20240;-71
2021/04/01 22:24:30;;;;;;;9.93;4.68;;;;;;;8.28;58.74;101162.34;8917475;33;20330;-71
2021/04/01 22:29:34;;;;;;;9.82;5.07;;;;;;;8.03;59.32;101157.56;8917612;33;20225;-71
2021/04/01 22:34:36;;;;;;;9.15;5.07;;;;;;;7.84;60.00;101154.22;8916989;33;20347;-71
2021/04/01 22:39:38;;;;;;;8.82;5.25;;;;;;;7.69;60.33;101150.63;8917810;33;20256;-71
2021/04/01 22:44:41;;;;;;;8.75;4.90;;;;;;;7.63;60.51;101156.31;8917691;33;20278;-71
2021/04/01 22:49:43;;;;;;;10.35;5.80;;;;;;;7.57;60.69;101146.84;8917806;33;20324;-71
2021/04/01 22:54:48;;;;;;;8.85;5.30;;;;;;;7.52;60.85;101150.72;8917147;33;20229;-71
2021/04/01 22:59:51;;;;;;;9.05;5.43;;;;;;;7.63;60.96;101159.00;8892412;33;20232;-71
2021/04/01 23:04:54;;;;;;;10.70;5.60;;;;;;;7.75;60.77;101147.59;8891876;33;20946;-71
2021/04/01 23:09:56;;;;;;;10.65;5.50;;;;;;;7.86;60.26;101150.50;8916927;33;20904;-71
2021/04/01 23:14:59;;;;;;;10.02;5.38;;;;;;;7.87;60.54;101151.38;8916265;33;20316;-71
2021/04/01 23:20:02;;;;;;;12.55;5.95;;;;;;;7.97;60.38;101143.69;8915433;33;20268;-71
2021/04/01 23:25:06;;;;;;;18.25;6.10;;;;;;;7.94;60.35;101155.44;8916448;33;20288;-71
2021/04/01 23:30:12;;;;;;;9.93;7.00;;;;;;;7.94;60.35;101156.28;8916218;33;20289;-71
2021/04/01 23:35:16;;;;;;;10.30;5.90;;;;;;;7.77;60.87;101155.53;8915743;33;20279;-71
2021/04/01 23:40:18;;;;;;;11.82;6.18;;;;;;;7.59;61.18;101152.09;8915964;33;20344;-71
2021/04/01 23:45:27;;;;;;;12.25;5.75;;;;;;;7.56;61.49;101150.44;8914467;33;20252;-71
2021/04/01 23:50:34;;;;;;;12.02;6.18;;;;;;;7.47;61.71;101151.81;8915726;33;20283;-71
2021/04/01 23:55:37;;;;;;;10.13;5.93;;;;;;;7.48;61.77;101153.53;8915274;33;22653;-71
